createdAt,value
2023-08-30T00:01:10.129Z,8.50
2023-08-30T00:03:37.562Z,8.27
2023-08-30T00:06:05.593Z,8.60
2023-08-30T00:08:33.458Z,7.82
2023-08-30T00:11:00.764Z,8.43
2023-08-30T00:13:27.942Z,8.52
2023-08-30T00:15:56.020Z,9.10
2023-08-30T00:18:23.224Z,8.82
2023-08-30T00:20:50.357Z,8.45
2023-08-30T00:23:18.039Z,8.77
2023-08-30T00:25:45.069Z,9.00
2023-08-30T00:28:12.405Z,9.70
2023-08-30T00:30:39.783Z,9.48
2023-08-30T00:33:07.755Z,9.48
2023-08-30T00:35:35.245Z,10.30
2023-08-30T00:38:02.364Z,10.57
2023-08-30T00:40:29.907Z,11.32
2023-08-30T00:42:57.678Z,11.23
2023-08-30T00:45:25.130Z,11.75
2023-08-30T00:47:52.229Z,12.60
2023-08-30T00:50:19.397Z,13.60
2023-08-30T00:52:46.484Z,13.40
2023-08-30T00:55:13.619Z,13.30
2023-08-30T00:57:40.694Z,14.43
2023-08-30T01:00:09.530Z,15.27
2023-08-30T01:02:37.371Z,13.75
2023-08-30T01:05:04.919Z,14.43
2023-08-30T01:07:32.295Z,14.35
2023-08-30T01:09:59.742Z,14.43
2023-08-30T01:12:33.064Z,15.85
2023-08-30T01:15:10.444Z,16.00
2023-08-30T01:17:37.674Z,16.08
2023-08-30T01:20:18.330Z,16.15
2023-08-30T01:23:07.557Z,17.05
2023-08-30T01:25:43.607Z,16.50
2023-08-30T01:28:10.939Z,17.00
2023-08-30T01:30:39.485Z,15.30
2023-08-30T01:33:06.652Z,17.00
2023-08-30T01:35:34.232Z,18.33
2023-08-30T01:38:01.729Z,18.55
2023-08-30T01:40:29.978Z,19.45
2023-08-30T01:42:56.998Z,19.35
2023-08-30T01:45:24.244Z,18.58
2023-08-30T01:47:53.236Z,19.75
2023-08-30T01:50:20.828Z,20.10
2023-08-30T01:52:48.092Z,21.67
2023-08-30T01:55:15.270Z,19.92
2023-08-30T01:57:42.322Z,21.50
2023-08-30T02:00:09.962Z,17.73
2023-08-30T02:02:43.976Z,21.05
2023-08-30T02:05:13.475Z,21.23
2023-08-30T02:07:55.130Z,20.67
2023-08-30T02:10:35.064Z,20.75
2023-08-30T02:13:02.541Z,21.27
2023-08-30T02:15:29.638Z,21.20
2023-08-30T02:17:56.946Z,20.17
2023-08-30T02:20:24.338Z,20.73
2023-08-30T02:22:51.394Z,20.35
2023-08-30T02:25:18.560Z,19.83
2023-08-30T02:27:46.435Z,20.23
2023-08-30T02:30:13.451Z,19.90
2023-08-30T02:32:40.557Z,19.02
2023-08-30T02:35:08.019Z,18.95
2023-08-30T02:37:35.140Z,17.48
2023-08-30T02:40:02.248Z,17.67
2023-08-30T02:42:29.861Z,17.40
2023-08-30T02:44:56.999Z,16.50
2023-08-30T02:47:24.921Z,15.95
2023-08-30T02:49:51.991Z,16.23
2023-08-30T02:52:19.146Z,16.63
2023-08-30T02:54:46.228Z,17.17
2023-08-30T02:57:13.393Z,17.08
2023-08-30T02:59:40.590Z,20.13
2023-08-30T03:02:07.790Z,21.23
2023-08-30T03:04:35.496Z,21.98
2023-08-30T03:07:02.804Z,22.17
2023-08-30T03:09:30.440Z,21.45
2023-08-30T03:11:57.620Z,19.90
2023-08-30T03:14:24.826Z,22.17
2023-08-30T03:16:52.250Z,21.02
2023-08-30T03:19:19.404Z,21.15
2023-08-30T03:21:46.564Z,21.13
2023-08-30T03:24:15.197Z,20.95
2023-08-30T03:26:44.049Z,20.25
2023-08-30T03:29:12.342Z,22.75
2023-08-30T03:31:39.422Z,22.50
2023-08-30T03:34:06.621Z,21.15
2023-08-30T03:36:33.773Z,18.83
2023-08-30T03:39:00.994Z,19.73
2023-08-30T03:41:28.064Z,18.00
2023-08-30T03:43:55.526Z,19.83
2023-08-30T03:46:22.679Z,18.63
2023-08-30T03:48:49.795Z,17.13
2023-08-30T03:51:18.103Z,19.00
2023-08-30T03:53:45.983Z,17.23
2023-08-30T03:56:13.878Z,17.00
2023-08-30T03:58:40.920Z,16.40
2023-08-30T04:01:08.141Z,17.48
2023-08-30T04:03:35.602Z,15.88
2023-08-30T04:06:03.051Z,16.20
2023-08-30T04:08:30.414Z,16.13
2023-08-30T04:10:57.471Z,16.17
2023-08-30T04:13:25.129Z,18.95
2023-08-30T04:15:54.030Z,22.55
2023-08-30T04:18:21.233Z,20.88
2023-08-30T04:20:48.589Z,23.85
2023-08-30T04:23:15.679Z,24.73
2023-08-30T04:25:43.297Z,24.73
2023-08-30T04:28:11.561Z,23.13
2023-08-30T04:30:39.816Z,24.25
2023-08-30T04:33:07.265Z,20.40
2023-08-30T04:35:34.638Z,21.95
2023-08-30T04:38:02.260Z,22.95
2023-08-30T04:40:30.453Z,24.77
2023-08-30T04:42:58.849Z,24.77
2023-08-30T04:45:26.066Z,24.13
2023-08-30T04:47:54.061Z,24.20
2023-08-30T04:50:21.950Z,23.90
2023-08-30T04:52:49.116Z,24.20
2023-08-30T04:55:16.138Z,23.20
2023-08-30T04:57:46.161Z,21.67
2023-08-30T05:00:16.573Z,23.13
2023-08-30T05:02:44.926Z,20.67
2023-08-30T05:05:12.482Z,18.73
2023-08-30T05:07:39.782Z,18.77
2023-08-30T05:10:07.625Z,19.05
2023-08-30T05:12:35.582Z,18.15
2023-08-30T05:15:02.761Z,17.58
2023-08-30T05:17:34.349Z,17.90
2023-08-30T05:20:01.881Z,19.15
2023-08-30T05:22:31.058Z,21.05
2023-08-30T05:24:58.392Z,19.02
2023-08-30T05:27:26.277Z,19.77
2023-08-30T05:29:54.482Z,19.63
2023-08-30T05:32:22.161Z,21.23
2023-08-30T05:35:07.826Z,23.02
2023-08-30T05:37:58.017Z,21.45
2023-08-30T05:40:45.926Z,20.98
2023-08-30T05:43:13.141Z,19.52
2023-08-30T05:45:40.401Z,21.50
2023-08-30T05:48:09.437Z,22.10
2023-08-30T05:50:36.843Z,19.98
2023-08-30T05:53:05.198Z,22.27
2023-08-30T05:55:33.538Z,20.92
2023-08-30T05:58:00.789Z,21.35
2023-08-30T06:00:27.928Z,20.50
2023-08-30T06:02:55.144Z,20.67
2023-08-30T06:05:22.349Z,21.33
2023-08-30T06:07:49.455Z,20.98
2023-08-30T06:10:16.621Z,21.33
2023-08-30T06:12:43.696Z,20.08
2023-08-30T06:15:10.953Z,19.20
2023-08-30T06:17:38.057Z,17.60
2023-08-30T06:20:05.861Z,19.92
2023-08-30T06:22:33.117Z,17.20
2023-08-30T06:25:00.236Z,17.00
2023-08-30T06:27:27.317Z,17.95
2023-08-30T06:29:54.478Z,15.48
2023-08-30T06:32:21.969Z,15.02
2023-08-30T06:34:49.111Z,15.85
2023-08-30T06:37:16.292Z,16.27
2023-08-30T06:39:43.478Z,14.57
2023-08-30T06:42:10.631Z,16.83
2023-08-30T06:44:41.770Z,13.35
2023-08-30T06:47:08.951Z,13.50
2023-08-30T06:49:36.130Z,13.45
2023-08-30T06:52:04.906Z,14.25
2023-08-30T06:54:35.124Z,12.73
2023-08-30T06:57:02.407Z,14.98
2023-08-30T06:59:29.639Z,12.50
2023-08-30T07:01:56.698Z,13.63
2023-08-30T07:04:23.872Z,12.50
2023-08-30T07:06:51.324Z,12.73
2023-08-30T07:09:19.029Z,13.48
2023-08-30T07:11:47.173Z,14.13
2023-08-30T07:14:15.519Z,15.52
2023-08-30T07:16:42.685Z,13.90
2023-08-30T07:19:11.052Z,14.27
2023-08-30T07:21:39.950Z,14.27
2023-08-30T07:24:08.279Z,12.98
2023-08-30T07:26:36.283Z,11.77
2023-08-30T07:29:06.024Z,12.98
2023-08-30T07:31:33.952Z,13.30
2023-08-30T07:34:01.141Z,13.10
2023-08-30T07:36:44.860Z,12.82
2023-08-30T07:41:41.264Z,13.43
2023-08-30T07:44:08.560Z,12.55
2023-08-30T07:46:35.779Z,12.45
2023-08-30T07:49:03.799Z,13.48
2023-08-30T07:51:31.074Z,14.13
2023-08-30T07:53:58.162Z,12.43
2023-08-30T07:56:25.412Z,13.02
2023-08-30T07:58:52.366Z,15.02
2023-08-30T08:01:19.481Z,17.30
2023-08-30T08:04:00.236Z,15.43
2023-08-30T08:06:32.200Z,14.10
2023-08-30T08:08:59.583Z,14.10
2023-08-30T08:11:27.111Z,13.98
2023-08-30T08:13:54.434Z,15.07
2023-08-30T08:16:21.889Z,14.23
2023-08-30T08:18:48.997Z,12.55
2023-08-30T08:21:16.077Z,13.88
2023-08-30T08:23:43.117Z,13.93
2023-08-30T08:26:10.239Z,15.05
2023-08-30T08:28:37.367Z,13.65
2023-08-30T08:31:04.450Z,12.40
2023-08-30T08:33:31.724Z,11.95
2023-08-30T08:35:58.902Z,12.38
2023-08-30T08:38:26.014Z,11.10
2023-08-30T08:40:54.632Z,10.80
2023-08-30T08:43:21.650Z,10.35
2023-08-30T08:45:49.344Z,9.98
2023-08-30T08:48:16.574Z,12.45
2023-08-30T08:50:44.130Z,11.50
2023-08-30T08:53:11.208Z,11.20
2023-08-30T08:55:38.354Z,11.18
2023-08-30T08:58:05.508Z,10.32
2023-08-30T09:00:32.852Z,11.75
2023-08-30T09:03:00.187Z,10.95
2023-08-30T09:05:28.035Z,10.10
2023-08-30T09:07:55.879Z,9.82
2023-08-30T09:10:23.065Z,9.80
2023-08-30T09:12:50.259Z,10.52
2023-08-30T09:15:18.591Z,10.07
2023-08-30T09:17:48.256Z,9.73
2023-08-30T09:20:15.812Z,10.18
2023-08-30T09:22:43.523Z,10.00
2023-08-30T09:25:12.402Z,10.20
2023-08-30T09:27:42.530Z,9.93
2023-08-30T09:30:11.894Z,7.88
2023-08-30T09:32:46.418Z,7.47
2023-08-30T09:35:13.421Z,8.35
2023-08-30T09:37:40.479Z,7.63
2023-08-30T09:40:08.034Z,7.50
2023-08-30T09:42:35.031Z,7.30
2023-08-30T09:45:02.567Z,8.02
2023-08-30T09:47:32.076Z,8.30
2023-08-30T09:49:59.185Z,8.65
2023-08-30T09:52:26.900Z,8.05
2023-08-30T09:54:54.041Z,8.13
2023-08-30T09:57:22.589Z,7.20
2023-08-30T09:59:49.695Z,6.60
2023-08-30T10:02:16.815Z,8.48
2023-08-30T10:04:44.123Z,8.05
2023-08-30T10:07:11.324Z,7.47
2023-08-30T10:09:45.825Z,8.05
2023-08-30T10:12:21.336Z,7.68
2023-08-30T10:14:48.457Z,8.07
2023-08-30T10:17:15.724Z,7.50
2023-08-30T10:19:42.799Z,8.00
2023-08-30T10:22:10.277Z,7.45
2023-08-30T10:27:33.112Z,8.17
2023-08-30T10:30:04.814Z,8.50
2023-08-30T10:32:33.177Z,7.75
2023-08-30T10:35:02.357Z,7.13
2023-08-30T10:37:31.586Z,7.35
2023-08-30T10:40:04.827Z,7.32
2023-08-30T10:42:32.692Z,7.10
2023-08-30T10:47:39.194Z,6.60
2023-08-30T10:50:13.449Z,6.40
2023-08-30T10:52:40.951Z,6.50
2023-08-30T10:55:15.442Z,5.88
2023-08-30T10:57:43.693Z,6.03
2023-08-30T11:00:19.446Z,5.65
2023-08-30T11:02:48.019Z,5.65
2023-08-30T11:05:16.635Z,5.55
2023-08-30T11:07:44.604Z,6.07
2023-08-30T11:10:13.109Z,5.90
2023-08-30T11:12:46.375Z,6.13
2023-08-30T11:15:15.621Z,6.00
2023-08-30T11:17:43.422Z,5.97
2023-08-30T11:20:21.412Z,5.80
2023-08-30T11:22:49.994Z,5.53
2023-08-30T11:25:18.064Z,5.25
2023-08-30T11:27:47.347Z,4.82
2023-08-30T11:30:14.876Z,6.25
2023-08-30T11:32:46.694Z,5.93
2023-08-30T11:35:14.225Z,9.00
2023-08-30T11:37:42.536Z,10.65
2023-08-30T11:40:10.268Z,5.97
2023-08-30T11:42:37.293Z,6.57
2023-08-30T11:45:05.533Z,7.15
2023-08-30T11:47:34.216Z,5.88
2023-08-30T11:50:01.785Z,5.60
2023-08-30T11:52:34.086Z,5.10
2023-08-30T11:55:01.354Z,5.10
2023-08-30T11:57:28.972Z,5.35
2023-08-30T11:59:56.052Z,5.50
2023-08-30T12:02:23.176Z,5.15
2023-08-30T12:04:50.431Z,5.55
2023-08-30T12:07:24.801Z,8.00
2023-08-30T12:09:52.409Z,5.83
2023-08-30T12:12:19.649Z,5.20
2023-08-30T12:14:46.723Z,5.90
2023-08-30T12:17:14.087Z,5.47
2023-08-30T12:19:41.473Z,5.07
2023-08-30T12:22:11.713Z,5.28
2023-08-30T12:24:47.209Z,5.35
2023-08-30T12:29:41.557Z,5.18
2023-08-30T12:32:08.977Z,5.30
2023-08-30T12:34:36.652Z,5.25
2023-08-30T12:37:05.835Z,5.68
2023-08-30T12:39:33.132Z,5.22
2023-08-30T12:42:00.690Z,5.05
2023-08-30T12:44:27.903Z,5.07
2023-08-30T12:46:54.923Z,5.40
2023-08-30T12:49:22.243Z,5.28
2023-08-30T12:51:49.290Z,4.40
2023-08-30T12:54:16.450Z,4.30
2023-08-30T12:56:43.509Z,4.72
2023-08-30T12:59:10.633Z,4.55
2023-08-30T13:01:40.178Z,3.88
2023-08-30T13:04:08.936Z,4.03
2023-08-30T13:06:36.232Z,3.90
2023-08-30T13:09:04.604Z,4.10
2023-08-30T13:11:33.685Z,4.13
2023-08-30T13:14:01.139Z,4.25
2023-08-30T13:16:28.330Z,4.28
2023-08-30T13:18:55.536Z,4.40
2023-08-30T13:21:35.229Z,4.63
2023-08-30T13:24:08.008Z,4.40
2023-08-30T13:26:35.205Z,4.50
2023-08-30T13:29:03.640Z,5.03
2023-08-30T13:31:31.068Z,4.43
2023-08-30T13:33:59.364Z,4.53
2023-08-30T13:36:26.637Z,4.05
2023-08-30T13:38:54.384Z,4.20
2023-08-30T13:41:21.575Z,4.55
2023-08-30T13:43:48.646Z,4.63
2023-08-30T13:46:15.769Z,4.00
2023-08-30T13:48:43.060Z,3.83
2023-08-30T13:51:10.098Z,3.95
2023-08-30T13:53:37.161Z,4.10
2023-08-30T13:56:04.712Z,4.15
2023-08-30T13:58:31.768Z,4.35
2023-08-30T14:00:59.089Z,4.20
2023-08-30T14:03:26.225Z,3.90
2023-08-30T14:05:53.371Z,4.70
2023-08-30T14:08:20.443Z,3.88
2023-08-30T14:10:47.651Z,3.47
2023-08-30T14:13:14.797Z,3.75
2023-08-30T14:15:43.245Z,3.80
2023-08-30T14:18:10.751Z,3.60
2023-08-30T14:20:38.130Z,3.67
2023-08-30T14:23:05.289Z,4.18
2023-08-30T14:25:32.362Z,4.50
2023-08-30T14:28:00.763Z,5.03
2023-08-30T14:30:27.825Z,7.68
2023-08-30T14:32:54.902Z,8.20
2023-08-30T14:35:22.202Z,4.10
2023-08-30T14:37:49.267Z,3.80
2023-08-30T14:40:16.417Z,3.95
2023-08-30T14:42:43.614Z,4.32
2023-08-30T14:45:10.766Z,3.80
2023-08-30T14:47:38.716Z,3.53
2023-08-30T14:50:06.235Z,3.80
2023-08-30T14:52:33.323Z,3.90
2023-08-30T14:55:00.529Z,4.40
2023-08-30T14:57:27.787Z,4.63
2023-08-30T14:59:54.900Z,4.85
2023-08-30T15:02:22.036Z,5.22
2023-08-30T15:04:49.201Z,5.55
2023-08-30T15:07:16.272Z,5.28
2023-08-30T15:09:43.378Z,5.75
2023-08-30T15:12:10.481Z,5.80
2023-08-30T15:14:37.564Z,5.75
2023-08-30T15:17:05.230Z,5.38
2023-08-30T15:19:32.328Z,5.38
2023-08-30T15:21:59.510Z,4.68
2023-08-30T15:24:26.660Z,4.40
2023-08-30T15:26:53.646Z,4.82
2023-08-30T15:29:20.727Z,4.47
2023-08-30T15:31:52.837Z,4.70
2023-08-30T15:34:20.199Z,4.60
2023-08-30T15:36:47.828Z,4.80
2023-08-30T15:39:15.974Z,4.55
2023-08-30T15:41:43.001Z,4.80
2023-08-30T15:44:10.073Z,5.22
2023-08-30T15:46:39.453Z,4.47
2023-08-30T15:49:06.930Z,4.00
2023-08-30T15:51:34.069Z,4.20
2023-08-30T15:54:01.663Z,4.63
2023-08-30T15:56:28.685Z,4.68
2023-08-30T15:58:56.328Z,4.65
2023-08-30T16:01:23.604Z,4.70
2023-08-30T16:03:50.964Z,4.85
2023-08-30T16:06:18.244Z,5.30
2023-08-30T16:08:45.475Z,4.65
2023-08-30T16:11:12.640Z,5.75
2023-08-30T16:13:40.002Z,5.63
2023-08-30T16:16:07.103Z,4.90
2023-08-30T16:18:34.226Z,5.63
2023-08-30T16:21:01.490Z,5.97
2023-08-30T16:23:29.631Z,6.35
2023-08-30T16:26:00.119Z,5.80
2023-08-30T16:28:27.528Z,4.95
2023-08-30T16:31:00.647Z,5.93
2023-08-30T16:33:28.227Z,6.07
2023-08-30T16:35:55.520Z,5.85
2023-08-30T16:38:22.727Z,5.88
2023-08-30T16:40:49.662Z,5.90
2023-08-30T16:43:16.824Z,5.82
2023-08-30T16:45:43.893Z,5.90
2023-08-30T16:48:13.328Z,5.90
2023-08-30T16:50:40.531Z,5.45
2023-08-30T16:53:10.275Z,5.53
2023-08-30T16:55:37.414Z,5.38
2023-08-30T16:58:04.929Z,5.70
2023-08-30T17:00:33.077Z,5.45
2023-08-30T17:03:00.479Z,6.35
2023-08-30T17:05:28.278Z,5.93
2023-08-30T17:07:55.464Z,6.05
2023-08-30T17:10:26.010Z,6.53
2023-08-30T17:12:57.873Z,6.68
2023-08-30T17:15:25.574Z,6.40
2023-08-30T17:17:54.341Z,5.90
2023-08-30T17:20:21.521Z,6.38
2023-08-30T17:22:48.620Z,6.10
2023-08-30T17:25:15.721Z,6.82
2023-08-30T17:27:43.969Z,6.85
2023-08-30T17:30:14.644Z,8.77
2023-08-30T17:32:41.915Z,9.02
2023-08-30T17:35:09.467Z,9.98
2023-08-30T17:37:36.551Z,12.73
2023-08-30T17:40:06.301Z,12.98
2023-08-30T17:42:33.511Z,13.00
2023-08-30T17:45:01.178Z,14.68
2023-08-30T17:47:31.793Z,18.73
2023-08-30T17:49:58.924Z,19.30
2023-08-30T17:52:25.994Z,18.15
2023-08-30T17:54:53.957Z,19.60
2023-08-30T17:57:21.163Z,21.50
2023-08-30T17:59:48.310Z,23.80
2023-08-30T18:02:15.403Z,23.40
2023-08-30T18:04:42.711Z,26.70
2023-08-30T18:07:09.826Z,25.30
2023-08-30T18:09:38.778Z,24.98
2023-08-30T18:12:06.544Z,24.83
2023-08-30T18:14:33.856Z,23.10
2023-08-30T18:17:00.938Z,20.73
2023-08-30T18:19:28.153Z,20.92
2023-08-30T18:21:55.266Z,20.60
2023-08-30T18:24:24.748Z,19.67
2023-08-30T18:26:52.268Z,18.70
2023-08-30T18:29:20.947Z,17.95
2023-08-30T18:31:49.134Z,16.77
2023-08-30T18:34:17.388Z,14.55
2023-08-30T18:36:45.953Z,12.25
2023-08-30T18:39:16.914Z,11.95
2023-08-30T18:41:44.466Z,10.20
2023-08-30T18:44:11.569Z,9.80
2023-08-30T18:46:38.963Z,9.45
2023-08-30T18:49:06.097Z,9.95
2023-08-30T18:51:33.633Z,13.07
2023-08-30T18:54:03.628Z,14.45
2023-08-30T18:56:30.914Z,13.85
2023-08-30T18:58:58.257Z,11.52
2023-08-30T19:01:29.393Z,11.27
2023-08-30T19:03:56.491Z,12.02
2023-08-30T19:06:23.541Z,12.30
2023-08-30T19:08:52.099Z,12.20
2023-08-30T19:11:19.633Z,9.73
2023-08-30T19:13:47.726Z,10.05
2023-08-30T19:16:20.508Z,11.80
2023-08-30T19:18:47.899Z,9.70
2023-08-30T19:21:15.874Z,9.25
2023-08-30T19:23:45.661Z,8.07
2023-08-30T19:26:13.192Z,8.43
2023-08-30T19:28:40.372Z,7.88
2023-08-30T19:31:07.457Z,7.88
2023-08-30T19:33:35.169Z,6.88
2023-08-30T19:36:02.219Z,6.80
2023-08-30T19:38:29.809Z,6.82
2023-08-30T19:40:57.031Z,6.72
2023-08-30T19:43:24.273Z,7.10
2023-08-30T19:46:05.584Z,6.80
2023-08-30T19:48:32.885Z,6.57
2023-08-30T19:51:00.181Z,6.05
2023-08-30T19:53:28.207Z,6.47
2023-08-30T19:55:56.927Z,6.00
2023-08-30T19:58:24.191Z,6.00
2023-08-30T20:00:51.293Z,6.22
2023-08-30T20:03:19.058Z,5.88
2023-08-30T20:05:53.016Z,5.90
2023-08-30T20:08:20.232Z,6.38
2023-08-30T20:10:47.941Z,5.60
2023-08-30T20:13:14.977Z,5.97
2023-08-30T20:15:42.435Z,5.85
2023-08-30T20:18:11.004Z,5.75
2023-08-30T20:20:42.494Z,5.57
2023-08-30T20:23:09.818Z,5.60
2023-08-30T20:25:37.606Z,5.75
2023-08-30T20:28:05.102Z,5.47
2023-08-30T20:30:32.277Z,5.60
2023-08-30T20:32:59.353Z,5.53
2023-08-30T20:35:26.710Z,5.53
2023-08-30T20:37:53.747Z,5.20
2023-08-30T20:40:20.928Z,4.68
2023-08-30T20:42:48.056Z,4.80
2023-08-30T20:45:15.388Z,5.82
2023-08-30T20:47:42.472Z,5.45
2023-08-30T20:50:10.988Z,5.85
2023-08-30T20:52:38.188Z,5.35
2023-08-30T20:55:07.876Z,5.38
2023-08-30T20:57:35.681Z,5.10
2023-08-30T21:00:03.298Z,5.50
2023-08-30T21:02:36.481Z,5.03
2023-08-30T21:05:04.815Z,5.20
2023-08-30T21:07:32.373Z,5.80
2023-08-30T21:09:59.978Z,5.53
2023-08-30T21:12:27.141Z,4.97
2023-08-30T21:14:54.158Z,5.30
2023-08-30T21:17:21.123Z,5.55
2023-08-30T21:19:48.139Z,6.15
2023-08-30T21:22:15.347Z,5.45
2023-08-30T21:24:42.367Z,5.00
2023-08-30T21:27:09.555Z,5.57
2023-08-30T21:29:36.647Z,6.10
2023-08-30T21:32:04.939Z,5.63
2023-08-30T21:34:32.393Z,5.35
2023-08-30T21:36:59.530Z,5.88
2023-08-30T21:39:26.759Z,5.45
2023-08-30T21:41:53.735Z,5.55
2023-08-30T21:44:20.864Z,5.07
2023-08-30T21:46:47.930Z,5.80
2023-08-30T21:49:15.692Z,5.90
2023-08-30T21:51:42.831Z,5.32
2023-08-30T21:54:09.929Z,5.90
2023-08-30T21:56:38.391Z,5.45
2023-08-30T21:59:05.586Z,5.60
2023-08-30T22:01:32.617Z,6.75
2023-08-30T22:04:00.609Z,6.78
2023-08-30T22:06:27.834Z,8.82
2023-08-30T22:08:55.001Z,9.27
2023-08-30T22:11:22.262Z,7.45
2023-08-30T22:13:49.567Z,7.20
2023-08-30T22:16:16.853Z,8.30
2023-08-30T22:18:47.912Z,9.07
2023-08-30T22:21:17.198Z,9.95
2023-08-30T22:23:44.660Z,11.90
2023-08-30T22:26:11.712Z,8.05
2023-08-30T22:28:39.881Z,7.82
2023-08-30T22:31:07.650Z,8.82
2023-08-30T22:33:37.991Z,11.20
2023-08-30T22:36:05.805Z,11.07
2023-08-30T22:38:33.381Z,9.35
2023-08-30T22:41:03.571Z,11.38
2023-08-30T22:43:30.723Z,11.45
2023-08-30T22:46:00.805Z,11.40
2023-08-30T22:48:29.365Z,13.43
2023-08-30T22:50:57.293Z,12.10
2023-08-30T22:53:24.415Z,12.95
2023-08-30T22:55:51.511Z,10.98
2023-08-30T22:58:19.126Z,12.35
2023-08-30T23:00:46.703Z,12.00
2023-08-30T23:03:14.170Z,10.32
2023-08-30T23:05:41.606Z,9.90
2023-08-30T23:08:08.654Z,10.80
2023-08-30T23:10:35.694Z,10.02
2023-08-30T23:13:03.560Z,8.70
2023-08-30T23:15:30.748Z,8.68
2023-08-30T23:17:58.051Z,9.20
2023-08-30T23:20:25.373Z,8.88
2023-08-30T23:22:52.781Z,8.65
2023-08-30T23:25:20.082Z,7.97
2023-08-30T23:27:47.191Z,7.97
2023-08-30T23:30:14.557Z,7.82
2023-08-30T23:32:41.681Z,8.05
2023-08-30T23:35:09.145Z,6.90
2023-08-30T23:37:36.336Z,7.88
2023-08-30T23:40:08.323Z,7.95
2023-08-30T23:42:35.491Z,6.68
2023-08-30T23:45:02.565Z,6.97
2023-08-30T23:47:31.605Z,7.20
2023-08-30T23:49:59.096Z,6.82
2023-08-30T23:52:26.624Z,7.00
2023-08-30T23:54:53.711Z,6.78
2023-08-30T23:57:20.694Z,7.65
2023-08-30T23:59:47.681Z,7.75
